createdAt,value
2023-01-15T12:29:11.069Z,99058.95
2023-01-15T12:34:26.467Z,99063.09
2023-01-15T12:39:51.324Z,99069.11
2023-01-15T12:45:00.936Z,99069.45
2023-01-15T12:50:15.695Z,99071.17
2023-01-15T12:55:26.786Z,99072.48
2023-01-15T13:00:38.001Z,99064.93
2023-01-15T13:05:47.856Z,99067.24
2023-01-15T13:10:50.884Z,99068.17
2023-01-15T13:15:58.685Z,99066.07
2023-01-15T13:21:13.325Z,99061.20
2023-01-15T13:26:57.678Z,99066.23
2023-01-15T13:32:18.312Z,99064.87
2023-01-15T13:37:29.960Z,99062.80
2023-01-15T13:42:32.302Z,99063.05
2023-01-15T13:47:37.473Z,99063.67
2023-01-15T13:52:39.093Z,99059.18
2023-01-15T13:57:42.796Z,99063.09
2023-01-15T14:02:59.467Z,99065.14
2023-01-15T14:08:03.270Z,99061.31
2023-01-15T14:13:19.892Z,99060.86
2023-01-15T14:18:46.398Z,99062.81
2023-01-15T14:24:23.545Z,99066.44
2023-01-15T14:29:51.008Z,99065.98
2023-01-15T14:34:58.581Z,99066.02
2023-01-15T14:40:05.129Z,99068.80
2023-01-15T14:45:10.749Z,99073.13
2023-01-15T14:50:38.814Z,99074.11
2023-01-15T14:56:06.442Z,99067.68
2023-01-15T15:01:14.816Z,99064.52
2023-01-15T15:06:17.668Z,99065.62
2023-01-15T15:11:44.126Z,99065.80
2023-01-15T15:16:50.749Z,99067.84
2023-01-15T15:21:53.403Z,99070.34
2023-01-15T15:26:55.194Z,99068.07
2023-01-15T15:32:00.111Z,99066.41
2023-01-15T15:37:05.275Z,99064.20
2023-01-15T15:42:34.857Z,99062.54
2023-01-15T15:48:11.345Z,99058.59
2023-01-15T15:53:17.831Z,99051.64
2023-01-15T15:58:33.276Z,99048.66
2023-01-15T16:03:34.816Z,99045.70
2023-01-15T16:08:36.342Z,99039.39
2023-01-15T16:13:45.466Z,99046.37
2023-01-15T16:18:53.608Z,99053.77
2023-01-15T16:24:00.096Z,99057.27
2023-01-15T16:29:05.232Z,99060.34
2023-01-15T16:34:07.343Z,99073.45
2023-01-15T16:39:21.151Z,99082.92
2023-01-15T16:44:50.683Z,99074.44
2023-01-15T16:49:52.883Z,99083.55
2023-01-15T16:54:56.767Z,99089.15
2023-01-15T17:00:07.901Z,99097.00
2023-01-15T17:05:23.584Z,99103.08
2023-01-15T17:10:28.224Z,99109.39
2023-01-15T17:15:37.380Z,99111.04
2023-01-15T17:20:39.096Z,99113.96
2023-01-15T17:25:40.645Z,99127.90
2023-01-15T17:30:42.188Z,99139.77
2023-01-15T17:35:45.870Z,99141.11
2023-01-15T17:40:47.602Z,99144.58
2023-01-15T17:45:49.096Z,99150.06
2023-01-15T17:50:50.582Z,99153.77
2023-01-15T17:56:10.954Z,99162.70
2023-01-15T18:01:38.127Z,99176.14
2023-01-15T18:06:46.034Z,99182.79
2023-01-15T18:11:47.635Z,99194.77
2023-01-15T18:16:49.232Z,99198.06
2023-01-15T18:21:50.782Z,99203.53
2023-01-15T18:26:52.787Z,99201.30
2023-01-15T18:31:54.485Z,99208.20
2023-01-15T18:36:56.094Z,99209.49
2023-01-15T18:41:57.605Z,99208.79
2023-01-15T18:47:01.740Z,99207.52
2023-01-15T18:52:22.212Z,99213.95
2023-01-15T18:57:24.513Z,99216.74
2023-01-15T19:02:26.063Z,99225.21
2023-01-15T19:07:27.721Z,99226.66
2023-01-15T19:12:29.216Z,99232.25
2023-01-15T19:17:49.639Z,99238.73
2023-01-15T19:23:00.033Z,99240.11
2023-01-15T19:28:01.964Z,99236.35
2023-01-15T19:33:03.891Z,99232.56
2023-01-15T19:38:10.609Z,99235.32
2023-01-15T19:43:31.045Z,99233.26
2023-01-15T19:48:52.561Z,99239.05
2023-01-15T19:53:54.142Z,99240.70
2023-01-15T19:58:55.645Z,99253.17
2023-01-15T20:03:57.203Z,99262.93
2023-01-15T20:08:58.705Z,99272.83
2023-01-15T20:14:00.164Z,99277.55
2023-01-15T20:19:01.681Z,99279.99
2023-01-15T20:24:03.447Z,99279.02
2023-01-15T20:29:04.990Z,99273.02
2023-01-15T20:34:06.461Z,99281.98
2023-01-15T20:39:08.032Z,99286.06
2023-01-15T20:44:29.958Z,99286.23
2023-01-15T20:49:32.647Z,99283.81
2023-01-15T20:54:34.957Z,99277.79
2023-01-15T20:59:36.412Z,99284.10
2023-01-15T21:04:38.224Z,99279.26
2023-01-15T21:09:39.899Z,99280.72
2023-01-15T21:14:41.783Z,99278.44
2023-01-15T21:19:43.464Z,99282.16
2023-01-15T21:24:46.691Z,99286.05
2023-01-15T21:29:48.431Z,99299.40
2023-01-15T21:34:50.157Z,99300.20
2023-01-15T21:39:51.643Z,99292.14
2023-01-15T21:44:53.113Z,99292.52
2023-01-15T21:49:54.670Z,99296.80
2023-01-15T21:54:56.249Z,99296.33
2023-01-15T21:59:58.325Z,99294.55
2023-01-15T22:04:59.947Z,99295.33
2023-01-15T22:10:01.763Z,99300.40
2023-01-15T22:15:03.633Z,99305.04
2023-01-15T22:20:08.126Z,99312.44
2023-01-15T22:25:13.384Z,99313.83
2023-01-15T22:30:16.618Z,99308.88
2023-01-15T22:35:18.179Z,99307.91
2023-01-15T22:40:19.676Z,99303.67
2023-01-15T22:45:22.917Z,99316.49
2023-01-15T22:50:24.449Z,99312.38
2023-01-15T22:55:25.919Z,99302.77
2023-01-15T23:00:31.066Z,99301.61
2023-01-15T23:05:40.107Z,99305.35
2023-01-15T23:10:44.517Z,99304.95
2023-01-15T23:15:46.107Z,99303.59
2023-01-15T23:20:47.763Z,99297.08
2023-01-15T23:25:50.151Z,99295.45
2023-01-15T23:30:51.694Z,99293.91
2023-01-15T23:35:54.073Z,99292.14
2023-01-15T23:40:55.568Z,99298.42
2023-01-15T23:46:16.972Z,99300.42
2023-01-15T23:51:18.592Z,99295.79
2023-01-15T23:56:20.078Z,99289.81
